GAF312 LEZL-ETNW
Flight info
| Callsign | GAF312 |
|---|---|
| Flight time | N/A |
| Altitude | 38000 |
| Route | HIJ N10 VTB N871 TOPTU DCT ESISI DCT ENUPA DCT RLP DCT ROUSY/N0435F390 DCT DOJOH DCT ROBEG N850 ISPOF |
| Aircraft | A20N/M-SDE2E3FGHIRWXY/LB1 |
Departure
| Time | 2026-04-25 15:54 |
|---|---|
| Airport | Seville Airport (LEZL) |
Arrival
| Time | N/A |
|---|---|
| Airport | Wunstorf Air Base (ETNW) |
| Time | Latitude | Longitude | Altitude | Speed | Heading |
|---|---|---|---|---|---|
| 2026-04-25 15:47 | 37.41284 | -5.88564 | 98 ft | 0 kts | 83° |
| 2026-04-25 15:49 | 37.41284 | -5.88563 | 98 ft | 0 kts | 83° |
| 2026-04-25 15:49 | 37.41286 | -5.88539 | 97 ft | 5 kts | 85° |
| 2026-04-25 15:49 | 37.41287 | -5.88402 | 101 ft | 29 kts | 90° |
| 2026-04-25 15:49 | 37.41288 | -5.88130 | 103 ft | 32 kts | 87° |
| 2026-04-25 15:50 | 37.41299 | -5.87941 | 106 ft | 33 kts | 86° |
| 2026-04-25 15:50 | 37.41359 | -5.87569 | 111 ft | 31 kts | 47° |
| 2026-04-25 15:50 | 37.41373 | -5.87518 | 110 ft | 8 kts | 152° |
| 2026-04-25 15:50 | 37.41333 | -5.87567 | 111 ft | 12 kts | 243° |
| 2026-04-25 15:51 | 37.41334 | -5.87658 | 109 ft | 7 kts | 340° |
| 2026-04-25 15:51 | 37.41348 | -5.87657 | 110 ft | 6 kts | 8° |
| 2026-04-25 15:51 | 37.41439 | -5.87614 | 109 ft | 11 kts | 31° |
| 2026-04-25 15:51 | 37.41472 | -5.87588 | 112 ft | 2 kts | 35° |
| 2026-04-25 15:52 | 37.41500 | -5.87563 | 114 ft | 8 kts | 35° |
| 2026-04-25 15:52 | 37.41561 | -5.87506 | 113 ft | 14 kts | 37° |
| 2026-04-25 15:52 | 37.41648 | -5.87408 | 113 ft | 19 kts | 42° |
| 2026-04-25 15:52 | 37.41761 | -5.87402 | 110 ft | 19 kts | 323° |
| 2026-04-25 15:53 | 37.41806 | -5.87549 | 108 ft | 8 kts | 265° |
| 2026-04-25 15:53 | 37.41806 | -5.87551 | 108 ft | 0 kts | 265° |
| 2026-04-25 15:53 | 37.41801 | -5.87713 | 106 ft | 66 kts | 268° |
| 2026-04-25 15:53 | 37.41793 | -5.88747 | 104 ft | 162 kts | 271° |
| 2026-04-25 15:54 | 37.41800 | -5.90394 | 453 ft | 213 kts | 267° |
| 2026-04-25 15:54 | 37.41750 | -5.92358 | 1494 ft | 231 kts | 269° |
| 2026-04-25 15:54 | 37.41798 | -5.94391 | 2950 ft | 235 kts | 279° |
| 2026-04-25 15:54 | 37.42458 | -5.96347 | 3907 ft | 257 kts | 308° |
| 2026-04-25 15:55 | 37.43800 | -5.97928 | 4964 ft | 270 kts | 323° |
| 2026-04-25 15:55 | 37.45307 | -5.99341 | 6333 ft | 272 kts | 326° |
| 2026-04-25 15:55 | 37.46857 | -6.00759 | 7569 ft | 278 kts | 325° |
| 2026-04-25 15:55 | 37.48429 | -6.02231 | 8814 ft | 284 kts | 324° |
| 2026-04-25 15:56 | 37.49992 | -6.03736 | 10059 ft | 290 kts | 324° |
| 2026-04-25 15:56 | 37.51630 | -6.05340 | 10910 ft | 309 kts | 324° |
| 2026-04-25 15:56 | 37.53393 | -6.07078 | 11510 ft | 334 kts | 323° |
| 2026-04-25 15:56 | 37.55286 | -6.08920 | 12279 ft | 348 kts | 328° |
| 2026-04-25 15:57 | 37.57491 | -6.10173 | 13361 ft | 350 kts | 348° |
| 2026-04-25 15:57 | 37.59915 | -6.10382 | 14362 ft | 352 kts | 8° |
| 2026-04-25 15:57 | 37.62250 | -6.09499 | 15350 ft | 353 kts | 28° |
| 2026-04-25 15:57 | 37.64250 | -6.07694 | 16315 ft | 357 kts | 41° |
| 2026-04-25 15:58 | 37.66127 | -6.05593 | 17237 ft | 362 kts | 43° |
| 2026-04-25 15:58 | 37.67978 | -6.03478 | 18172 ft | 367 kts | 43° |
| 2026-04-25 15:58 | 37.69898 | -6.01296 | 18999 ft | 372 kts | 43° |
| 2026-04-25 15:58 | 37.71847 | -5.99102 | 19807 ft | 377 kts | 42° |
| 2026-04-25 15:59 | 37.73834 | -5.96879 | 20610 ft | 382 kts | 42° |
| 2026-04-25 15:59 | 37.75838 | -5.94646 | 21412 ft | 387 kts | 41° |
| 2026-04-25 15:59 | 37.77848 | -5.92407 | 22183 ft | 392 kts | 41° |
| 2026-04-25 15:59 | 37.79909 | -5.90111 | 22959 ft | 397 kts | 41° |
| 2026-04-25 16:00 | 37.81996 | -5.87784 | 23704 ft | 402 kts | 41° |
| 2026-04-25 16:00 | 37.82703 | -5.86995 | 23918 ft | 403 kts | 41° |
| 2026-04-25 16:00 | 37.86231 | -5.83057 | 25021 ft | 409 kts | 42° |
| 2026-04-25 16:00 | 37.88379 | -5.80657 | 25663 ft | 413 kts | 42° |
| 2026-04-25 16:01 | 37.90550 | -5.78229 | 26273 ft | 418 kts | 42° |
| 2026-04-25 16:01 | 37.92712 | -5.75809 | 26863 ft | 421 kts | 42° |
| 2026-04-25 16:01 | 37.94917 | -5.73338 | 27453 ft | 425 kts | 42° |
| 2026-04-25 16:01 | 37.97144 | -5.70841 | 28038 ft | 429 kts | 42° |
| 2026-04-25 16:02 | 37.99388 | -5.68323 | 28538 ft | 434 kts | 43° |
| 2026-04-25 16:02 | 38.00892 | -5.66634 | 28892 ft | 436 kts | 43° |
| 2026-04-25 16:02 | 38.03171 | -5.64073 | 29423 ft | 439 kts | 43° |
| 2026-04-25 16:02 | 38.06250 | -5.60608 | 30084 ft | 444 kts | 43° |
| 2026-04-25 16:03 | 38.07790 | -5.58873 | 30324 ft | 448 kts | 43° |
| 2026-04-25 16:03 | 38.10132 | -5.56234 | 30808 ft | 450 kts | 43° |
| 2026-04-25 16:03 | 38.12475 | -5.53589 | 31293 ft | 452 kts | 43° |
| 2026-04-25 16:03 | 38.14822 | -5.50940 | 31925 ft | 450 kts | 42° |
| 2026-04-25 16:04 | 38.17164 | -5.48291 | 32506 ft | 449 kts | 42° |
| 2026-04-25 16:04 | 38.19498 | -5.45649 | 33140 ft | 447 kts | 42° |
| 2026-04-25 16:04 | 38.21798 | -5.43043 | 33665 ft | 447 kts | 41° |
| 2026-04-25 16:04 | 38.24117 | -5.40412 | 34245 ft | 445 kts | 41° |
| 2026-04-25 16:05 | 38.26422 | -5.37795 | 34710 ft | 444 kts | 41° |
| 2026-04-25 16:05 | 38.28718 | -5.35185 | 35249 ft | 441 kts | 41° |
| 2026-04-25 16:05 | 38.33312 | -5.29967 | 36009 ft | 444 kts | 42° |
| 2026-04-25 16:06 | 38.35612 | -5.27348 | 36449 ft | 442 kts | 41° |
| 2026-04-25 16:06 | 38.37897 | -5.24742 | 36944 ft | 440 kts | 41° |
| 2026-04-25 16:06 | 38.40179 | -5.22136 | 37384 ft | 439 kts | 41° |
| 2026-04-25 16:06 | 38.42425 | -5.19570 | 37753 ft | 439 kts | 41° |
| 2026-04-25 16:07 | 38.44700 | -5.16970 | 38147 ft | 439 kts | 41° |
| 2026-04-25 16:07 | 38.46237 | -5.15213 | 38419 ft | 438 kts | 40° |
| 2026-04-25 16:07 | 38.49245 | -5.11769 | 38829 ft | 438 kts | 40° |
| 2026-04-25 16:08 | 38.53644 | -5.06401 | 38996 ft | 437 kts | 43° |
| 2026-04-25 16:08 | 38.57993 | -5.00962 | 39015 ft | 437 kts | 43° |
| 2026-04-25 16:09 | 38.62316 | -4.95548 | 39013 ft | 437 kts | 43° |
| 2026-04-25 16:09 | 38.66677 | -4.90066 | 39016 ft | 441 kts | 43° |
| 2026-04-25 16:10 | 38.71050 | -4.84553 | 39019 ft | 440 kts | 43° |
| 2026-04-25 16:10 | 38.75421 | -4.79035 | 39015 ft | 441 kts | 43° |
| 2026-04-25 16:11 | 38.79784 | -4.73517 | 39016 ft | 440 kts | 43° |
| 2026-04-25 16:11 | 38.84127 | -4.68016 | 39009 ft | 438 kts | 43° |
| 2026-04-25 16:12 | 38.88439 | -4.62543 | 39016 ft | 439 kts | 43° |
| 2026-04-25 16:12 | 38.92785 | -4.57017 | 39023 ft | 440 kts | 44° |
| 2026-04-25 16:13 | 38.97143 | -4.51468 | 39018 ft | 441 kts | 44° |
| 2026-04-25 16:13 | 39.01470 | -4.45942 | 39018 ft | 440 kts | 44° |
| 2026-04-25 16:14 | 39.05825 | -4.40370 | 39020 ft | 439 kts | 44° |
| 2026-04-25 16:14 | 39.10163 | -4.34810 | 39020 ft | 440 kts | 44° |
| 2026-04-25 16:15 | 39.14496 | -4.29246 | 39019 ft | 439 kts | 44° |
| 2026-04-25 16:15 | 39.18797 | -4.23713 | 39030 ft | 439 kts | 44° |
| 2026-04-25 16:16 | 39.23132 | -4.18126 | 39028 ft | 439 kts | 44° |
| 2026-04-25 16:16 | 39.27446 | -4.12556 | 39021 ft | 438 kts | 44° |
| 2026-04-25 16:17 | 39.31752 | -4.06986 | 39024 ft | 438 kts | 44° |
| 2026-04-25 16:17 | 39.36049 | -4.01418 | 39023 ft | 438 kts | 44° |
| 2026-04-25 16:18 | 39.40349 | -3.95834 | 39020 ft | 437 kts | 44° |
| 2026-04-25 16:18 | 39.44641 | -3.90252 | 39039 ft | 439 kts | 44° |
| 2026-04-25 16:19 | 39.48918 | -3.84678 | 39040 ft | 440 kts | 44° |
| 2026-04-25 16:19 | 39.53216 | -3.79070 | 39042 ft | 435 kts | 45° |
| 2026-04-25 16:20 | 39.59607 | -3.70708 | 39042 ft | 435 kts | 45° |
| 2026-04-25 16:21 | 39.66005 | -3.62316 | 39042 ft | 436 kts | 45° |
| 2026-04-25 16:21 | 39.70263 | -3.56717 | 39043 ft | 436 kts | 45° |
| 2026-04-25 16:22 | 39.74497 | -3.51141 | 39042 ft | 436 kts | 45° |
| 2026-04-25 16:22 | 39.78990 | -3.45807 | 39048 ft | 439 kts | 37° |
| 2026-04-25 16:23 | 39.84031 | -3.41344 | 39047 ft | 434 kts | 34° |
| 2026-04-25 16:23 | 39.89068 | -3.37006 | 39047 ft | 434 kts | 34° |
| 2026-04-25 16:24 | 39.94114 | -3.32654 | 39049 ft | 434 kts | 34° |
| 2026-04-25 16:24 | 39.99120 | -3.28338 | 39048 ft | 434 kts | 34° |
| 2026-04-25 16:25 | 40.04194 | -3.23957 | 39050 ft | 438 kts | 34° |
| 2026-04-25 16:25 | 40.09265 | -3.19572 | 39048 ft | 436 kts | 34° |
| 2026-04-25 16:26 | 40.14338 | -3.15176 | 39048 ft | 437 kts | 34° |
| 2026-04-25 16:26 | 40.19415 | -3.10769 | 39043 ft | 437 kts | 34° |
| 2026-04-25 16:27 | 40.24491 | -3.06354 | 39044 ft | 437 kts | 34° |
| 2026-04-25 16:27 | 40.29529 | -3.01966 | 39052 ft | 438 kts | 34° |
| 2026-04-25 16:28 | 40.34598 | -2.97538 | 39042 ft | 436 kts | 34° |
| 2026-04-25 16:28 | 40.39658 | -2.93111 | 39037 ft | 437 kts | 34° |
| 2026-04-25 16:29 | 40.44715 | -2.88679 | 39043 ft | 438 kts | 34° |
| 2026-04-25 16:29 | 40.49802 | -2.84212 | 39042 ft | 439 kts | 34° |
| 2026-04-25 16:30 | 40.54874 | -2.79751 | 39038 ft | 439 kts | 34° |
| 2026-04-25 16:30 | 40.59915 | -2.75308 | 39041 ft | 439 kts | 34° |
| 2026-04-25 16:31 | 40.64991 | -2.70827 | 39044 ft | 439 kts | 34° |
| 2026-04-25 16:31 | 40.70070 | -2.66335 | 39050 ft | 439 kts | 34° |
| 2026-04-25 16:32 | 40.75153 | -2.61830 | 39052 ft | 439 kts | 34° |
| 2026-04-25 16:32 | 40.80224 | -2.57328 | 39056 ft | 439 kts | 34° |
| 2026-04-25 16:33 | 40.85294 | -2.52819 | 39055 ft | 439 kts | 35° |
| 2026-04-25 16:33 | 40.90323 | -2.48335 | 39052 ft | 439 kts | 34° |
| 2026-04-25 16:34 | 40.95403 | -2.43799 | 39059 ft | 441 kts | 34° |
| 2026-04-25 16:34 | 41.00484 | -2.39254 | 39062 ft | 440 kts | 34° |
| 2026-04-25 16:35 | 41.05369 | -2.34353 | 39060 ft | 440 kts | 39° |
| 2026-04-25 16:35 | 41.10154 | -2.29283 | 39065 ft | 440 kts | 39° |
| 2026-04-25 16:36 | 41.14967 | -2.24184 | 39067 ft | 446 kts | 39° |
| 2026-04-25 16:36 | 41.19772 | -2.19073 | 39073 ft | 444 kts | 39° |
| 2026-04-25 16:37 | 41.24595 | -2.13929 | 39075 ft | 444 kts | 39° |
| 2026-04-25 16:37 | 41.29413 | -2.08780 | 39072 ft | 444 kts | 39° |
| 2026-04-25 16:38 | 41.34201 | -2.03653 | 39078 ft | 446 kts | 39° |
| 2026-04-25 16:38 | 41.39052 | -1.98446 | 39075 ft | 447 kts | 39° |
| 2026-04-25 16:39 | 41.43896 | -1.93239 | 39071 ft | 447 kts | 39° |
| 2026-04-25 16:39 | 41.48748 | -1.88015 | 39072 ft | 448 kts | 39° |
| 2026-04-25 16:40 | 41.53602 | -1.82776 | 39072 ft | 448 kts | 39° |
| 2026-04-25 16:40 | 41.58464 | -1.77516 | 39072 ft | 450 kts | 39° |
| 2026-04-25 16:41 | 41.63315 | -1.72260 | 39070 ft | 449 kts | 39° |
| 2026-04-25 16:41 | 41.70599 | -1.64348 | 39064 ft | 450 kts | 39° |
| 2026-04-25 16:42 | 41.75452 | -1.59064 | 39062 ft | 449 kts | 39° |
| 2026-04-25 16:42 | 41.80295 | -1.53778 | 39062 ft | 448 kts | 39° |
| 2026-04-25 16:43 | 41.85100 | -1.48527 | 39050 ft | 448 kts | 39° |
| 2026-04-25 16:43 | 41.89927 | -1.43238 | 39050 ft | 448 kts | 39° |
| 2026-04-25 16:44 | 41.94758 | -1.37934 | 39051 ft | 448 kts | 39° |